Time;durP1;ratioP1;P1;durP2;ratioP2;P2;SDS_P1;SDS_P2;PMS_P1;PMS_P2;Temp;Humidity;BMP_temperature;BMP_pressure;BME280_temperature;BME280_humidity;BME280_pressure;Samples;Min_cycle;Max_cycle;Signal;HPM_P1;HPM_P2
2021/12/30 00:00:57;;;;;;;0.10;0.10;;;12.80;99.90;;;;;;5086832;28;20032;-78
2021/12/30 00:03:22;;;;;;;;;;;12.90;99.90;;;;;;5087296;28;20073;-78
2021/12/30 00:05:48;;;;;;;0.10;0.10;;;12.90;99.90;;;;;;5068284;28;19911;-78
2021/12/30 00:08:14;;;;;;;0.03;0.00;;;12.90;99.90;;;;;;5069343;28;20024;-77
2021/12/30 00:10:41;;;;;;;0.20;0.20;;;12.90;99.90;;;;;;5086987;28;20103;-77
2021/12/30 00:13:07;;;;;;;0.10;0.10;;;13.00;99.90;;;;;;5087282;28;20024;-78
2021/12/30 00:15:34;;;;;;;0.10;0.10;;;12.90;99.90;;;;;;5086723;28;20420;-76
2021/12/30 00:18:02;;;;;;;0.13;0.10;;;13.10;99.90;;;;;;5068447;28;20586;-76
2021/12/30 00:20:28;;;;;;;0.08;0.08;;;13.10;99.90;;;;;;5088867;28;20476;-78
2021/12/30 00:22:54;;;;;;;0.22;0.22;;;13.10;99.90;;;;;;5090985;28;20044;-77
2021/12/30 00:25:20;;;;;;;0.00;0.00;;;13.00;99.90;;;;;;5072812;28;20051;-77
2021/12/30 00:27:46;;;;;;;0.10;0.10;;;13.10;99.90;;;;;;5090615;28;20035;-78
2021/12/30 00:30:15;;;;;;;0.00;0.00;;;13.10;99.90;;;;;;5072463;28;20028;-77
2021/12/30 00:32:40;;;;;;;0.00;0.00;;;13.10;99.90;;;;;;5072737;28;20472;-76
2021/12/30 00:35:07;;;;;;;0.32;0.30;;;13.10;99.90;;;;;;5072256;28;20042;-78
2021/12/30 00:37:33;;;;;;;1.35;0.10;;;13.00;99.90;;;;;;5072147;28;20523;-76
2021/12/30 00:39:58;;;;;;;0.00;0.00;;;13.10;99.90;;;;;;5071781;28;20032;-77
2021/12/30 00:42:24;;;;;;;0.50;0.10;;;13.00;99.90;;;;;;5089762;28;20431;-78
2021/12/30 00:44:50;;;;;;;0.00;0.00;;;13.00;99.90;;;;;;5070796;28;20020;-77
2021/12/30 00:47:16;;;;;;;0.10;0.05;;;12.90;99.90;;;;;;5078808;28;20511;-79
2021/12/30 00:49:41;;;;;;;0.10;0.00;;;13.00;99.90;;;;;;5090523;28;20204;-76
2021/12/30 00:52:07;;;;;;;0.52;0.52;;;13.00;99.90;;;;;;5108875;28;20561;-78
2021/12/30 00:54:33;;;;;;;0.00;0.00;;;13.00;99.90;;;;;;5109504;28;20068;-76
2021/12/30 00:56:59;;;;;;;0.08;0.08;;;13.10;99.90;;;;;;5109490;28;20035;-76
2021/12/30 00:59:25;;;;;;;0.15;0.00;;;13.10;99.90;;;;;;5109494;28;20065;-77
2021/12/30 01:01:51;;;;;;;0.05;0.05;;;13.00;99.90;;;;;;5091985;28;20032;-78
2021/12/30 01:04:18;;;;;;;0.00;0.00;;;13.00;99.90;;;;;;5110391;28;20018;-77
2021/12/30 01:06:44;;;;;;;0.00;0.00;;;13.10;99.90;;;;;;5110696;28;20031;-78
2021/12/30 01:09:10;;;;;;;0.10;0.10;;;13.10;99.90;;;;;;5092158;28;20057;-82
2021/12/30 01:11:35;;;;;;;1.92;0.20;;;13.20;99.90;;;;;;5092101;28;20172;-77
2021/12/30 01:14:09;;;;;;;0.00;0.00;;;13.20;99.90;;;;;;5110024;28;20024;-77
2021/12/30 01:16:41;;;;;;;0.20;0.20;;;13.20;99.90;;;;;;5110999;28;20028;-80
2021/12/30 01:19:42;;;;;;;0.10;0.10;;;13.20;99.90;;;;;;5092339;28;20528;-77
2021/12/30 01:22:10;;;;;;;0.20;0.00;;;13.30;99.90;;;;;;5092388;28;20050;-76
2021/12/30 01:24:36;;;;;;;0.10;0.10;;;13.30;99.90;;;;;;5092305;28;20023;-82
2021/12/30 01:27:02;;;;;;;0.00;0.00;;;13.30;99.90;;;;;;5091488;28;20034;-80
2021/12/30 01:29:29;;;;;;;0.00;0.00;;;13.30;99.90;;;;;;5092274;28;20361;-80
2021/12/30 01:31:55;;;;;;;0.28;0.25;;;13.30;99.90;;;;;;5091933;28;20020;-78
2021/12/30 01:34:21;;;;;;;0.00;0.00;;;13.30;99.90;;;;;;5092005;28;20024;-78
2021/12/30 01:36:47;;;;;;;1.27;0.10;;;13.30;99.90;;;;;;5092058;28;20031;-78
2021/12/30 01:39:13;;;;;;;0.05;0.05;;;13.30;99.90;;;;;;5091761;28;20120;-77
2021/12/30 01:41:41;;;;;;;0.10;0.10;;;13.30;99.90;;;;;;5093859;28;20035;-77
2021/12/30 01:44:06;;;;;;;0.00;0.00;;;13.20;99.90;;;;;;5092718;28;20028;-76
2021/12/30 01:46:40;;;;;;;0.10;0.10;;;13.20;99.90;;;;;;5089301;28;20032;-76
2021/12/30 01:49:07;;;;;;;0.10;0.10;;;13.20;99.90;;;;;;5089321;28;20028;-80
2021/12/30 01:51:33;;;;;;;0.00;0.00;;;13.20;99.90;;;;;;5071322;28;20032;-77
2021/12/30 01:53:59;;;;;;;0.90;0.05;;;14.40;99.90;;;;;;5089377;28;20461;-77
2021/12/30 01:56:25;;;;;;;0.00;0.00;;;13.20;99.90;;;;;;5071699;28;20039;-78
2021/12/30 01:58:51;;;;;;;0.50;0.10;;;13.20;99.90;;;;;;5071261;28;20036;-77
2021/12/30 02:01:17;;;;;;;0.30;0.10;;;13.20;99.90;;;;;;5088748;28;20087;-79
2021/12/30 02:03:42;;;;;;;0.10;0.10;;;13.20;99.90;;;;;;5089021;28;20260;-77
2021/12/30 02:06:08;;;;;;;0.08;0.08;;;13.20;99.90;;;;;;5088832;28;20086;-79
2021/12/30 02:08:34;;;;;;;0.10;0.10;;;13.20;99.90;;;;;;5071054;28;20020;-78
2021/12/30 02:10:59;;;;;;;0.10;0.10;;;13.30;99.90;;;;;;5089337;28;20036;-78
2021/12/30 02:13:26;;;;;;;0.00;0.00;;;13.20;99.90;;;;;;5070524;28;20024;-77
2021/12/30 02:15:52;;;;;;;0.00;0.00;;;13.20;99.90;;;;;;5089030;28;20028;-77
2021/12/30 02:18:18;;;;;;;0.10;0.10;;;13.20;99.90;;;;;;5070892;28;20024;-76
2021/12/30 02:20:54;;;;;;;0.00;0.00;;;13.20;99.90;;;;;;5070929;28;20499;-79
2021/12/30 02:23:23;;;;;;;0.00;0.00;;;13.20;99.90;;;;;;5070566;28;20023;-79
2021/12/30 02:25:50;;;;;;;0.00;0.00;;;13.30;99.90;;;;;;5070497;28;20352;-77
2021/12/30 02:28:18;;;;;;;0.10;0.10;;;13.30;99.90;;;;;;5088444;28;20035;-76
2021/12/30 02:30:45;;;;;;;1.17;0.10;;;13.20;99.90;;;;;;5070115;28;20027;-78
2021/12/30 02:33:12;;;;;;;0.00;0.00;;;13.20;99.90;;;;;;5088684;28;20557;-77
2021/12/30 02:35:38;;;;;;;0.10;0.10;;;13.30;99.90;;;;;;5070207;28;20066;-83
2021/12/30 02:38:05;;;;;;;0.10;0.10;;;13.20;99.90;;;;;;5088713;28;20063;-78
2021/12/30 02:40:43;;;;;;;0.08;0.00;;;13.20;99.90;;;;;;5070222;28;20046;-79
2021/12/30 02:43:13;;;;;;;0.10;0.10;;;13.30;99.90;;;;;;5087744;28;20077;-83
2021/12/30 02:45:39;;;;;;;0.10;0.00;;;13.30;99.90;;;;;;5069838;28;20024;-78
2021/12/30 02:48:05;;;;;;;0.00;0.00;;;13.30;99.90;;;;;;5103057;28;20036;-76
2021/12/30 02:50:31;;;;;;;0.10;0.10;;;13.30;99.90;;;;;;5108452;28;20042;-79
2021/12/30 02:52:57;;;;;;;0.00;0.00;;;13.30;99.90;;;;;;5091601;28;20032;-84
2021/12/30 02:55:23;;;;;;;0.00;0.00;;;13.30;99.90;;;;;;5108423;28;20031;-80
2021/12/30 02:57:49;;;;;;;0.10;0.10;;;13.30;99.90;;;;;;5108100;28;20028;-83
2021/12/30 03:00:15;;;;;;;0.32;0.20;;;13.40;99.90;;;;;;5109043;28;20024;-83
2021/12/30 03:02:41;;;;;;;0.00;0.00;;;13.40;99.90;;;;;;5090142;28;20054;-78
2021/12/30 03:05:08;;;;;;;0.10;0.10;;;13.30;99.90;;;;;;5108866;28;20430;-80
2021/12/30 03:07:35;;;;;;;0.10;0.00;;;13.30;99.90;;;;;;5107959;28;20357;-78
2021/12/30 03:10:03;;;;;;;0.00;0.00;;;13.30;99.90;;;;;;5108354;28;20103;-81
2021/12/30 03:12:29;;;;;;;0.00;0.00;;;13.30;99.90;;;;;;5089891;28;20031;-76
2021/12/30 03:14:56;;;;;;;0.00;0.00;;;13.30;99.90;;;;;;5108438;28;20019;-77
2021/12/30 03:17:22;;;;;;;0.00;0.00;;;13.40;99.90;;;;;;5108397;28;20031;-76
2021/12/30 03:19:47;;;;;;;0.00;0.00;;;13.30;99.90;;;;;;5094598;28;20409;-79
2021/12/30 03:22:13;;;;;;;0.03;0.03;;;13.30;99.90;;;;;;5087202;28;20032;-77
2021/12/30 03:24:39;;;;;;;0.10;0.00;;;13.30;99.90;;;;;;5068594;28;20085;-77
2021/12/30 03:27:06;;;;;;;0.00;0.00;;;13.50;99.90;;;;;;5068907;28;20028;-76
2021/12/30 03:29:32;;;;;;;0.00;0.00;;;13.50;99.90;;;;;;5087305;28;20016;-76
2021/12/30 03:31:58;;;;;;;0.00;0.00;;;13.40;99.90;;;;;;5087744;28;20027;-76
2021/12/30 03:34:24;;;;;;;0.00;0.00;;;13.50;99.90;;;;;;5068768;28;20384;-76
2021/12/30 03:36:50;;;;;;;0.00;0.00;;;13.50;99.90;;;;;;5069466;28;20016;-77
2021/12/30 03:39:15;;;;;;;1.08;0.00;;;13.50;99.90;;;;;;5068278;28;20078;-75
2021/12/30 03:41:41;;;;;;;0.00;0.00;;;13.50;99.90;;;;;;5086815;28;20055;-77
2021/12/30 03:44:07;;;;;;;0.00;0.00;;;13.50;99.90;;;;;;5068521;28;20032;-77
2021/12/30 03:46:33;;;;;;;0.00;0.00;;;13.60;99.90;;;;;;5088355;28;20020;-77
2021/12/30 03:49:00;;;;;;;0.00;0.00;;;13.60;99.90;;;;;;5107110;28;20047;-76
2021/12/30 03:51:26;;;;;;;0.10;0.10;;;13.60;99.90;;;;;;5107478;28;20027;-77
2021/12/30 03:53:56;;;;;;;0.00;0.00;;;13.70;99.90;;;;;;5106291;28;20016;-79
2021/12/30 03:56:28;;;;;;;0.00;0.00;;;13.70;99.90;;;;;;5106914;28;20031;-76
2021/12/30 03:58:54;;;;;;;0.32;0.05;;;13.60;99.90;;;;;;5089178;28;20023;-77
2021/12/30 04:01:21;;;;;;;0.00;0.00;;;13.60;99.90;;;;;;5088777;28;20042;-77
2021/12/30 04:03:48;;;;;;;0.00;0.00;;;13.60;99.90;;;;;;5107965;28;20043;-77
2021/12/30 04:06:14;;;;;;;0.22;0.00;;;13.50;99.90;;;;;;5108485;28;20069;-76
2021/12/30 04:08:41;;;;;;;0.00;0.00;;;13.50;99.90;;;;;;5089386;28;20055;-77
2021/12/30 04:11:07;;;;;;;0.00;0.00;;;13.50;99.90;;;;;;5108375;28;20539;-77
2021/12/30 04:13:34;;;;;;;0.00;0.00;;;13.60;99.90;;;;;;5108126;28;20015;-76
2021/12/30 04:16:00;;;;;;;0.00;0.00;;;13.60;99.90;;;;;;5089624;28;20038;-76
2021/12/30 04:18:26;;;;;;;0.00;0.00;;;13.60;99.90;;;;;;5090064;28;20020;-76
2021/12/30 04:20:53;;;;;;;0.00;0.00;;;13.50;99.90;;;;;;5089728;28;20028;-76
2021/12/30 04:23:18;;;;;;;0.00;0.00;;;13.40;99.90;;;;;;5107901;28;20026;-77
2021/12/30 04:25:44;;;;;;;0.00;0.00;;;13.30;99.90;;;;;;5089902;28;20383;-76
2021/12/30 04:28:10;;;;;;;0.00;0.00;;;13.40;99.90;;;;;;5108050;28;20061;-77
2021/12/30 04:30:36;;;;;;;0.00;0.00;;;13.40;99.90;;;;;;5089428;28;20024;-76
2021/12/30 04:33:03;;;;;;;0.40;0.00;;;13.50;99.90;;;;;;5089842;28;20015;-77
2021/12/30 04:35:28;;;;;;;0.00;0.00;;;13.50;99.90;;;;;;5090387;28;20468;-78
2021/12/30 04:37:54;;;;;;;0.10;0.10;;;13.50;99.90;;;;;;5091304;28;20058;-77
2021/12/30 04:40:20;;;;;;;0.00;0.00;;;13.40;99.90;;;;;;5109518;28;20068;-77
2021/12/30 04:42:45;;;;;;;0.00;0.00;;;13.40;99.90;;;;;;5091409;28;20030;-76
2021/12/30 04:45:12;;;;;;;0.10;0.10;;;13.40;99.90;;;;;;5109902;28;20023;-76
2021/12/30 04:47:39;;;;;;;0.00;0.00;;;13.40;99.90;;;;;;5091346;28;20036;-76
2021/12/30 04:50:07;;;;;;;0.00;0.00;;;13.40;99.90;;;;;;5091273;28;20101;-77
2021/12/30 04:52:33;;;;;;;1.40;0.10;;;13.30;99.90;;;;;;5090937;28;20027;-77
2021/12/30 04:54:58;;;;;;;0.00;0.00;;;13.20;99.90;;;;;;5109786;28;20080;-77
2021/12/30 04:57:24;;;;;;;0.00;0.00;;;13.20;99.90;;;;;;5109476;28;20020;-76
2021/12/30 04:59:50;;;;;;;0.30;0.00;;;13.20;99.90;;;;;;5091159;28;20034;-78
2021/12/30 05:02:16;;;;;;;0.00;0.00;;;13.10;99.90;;;;;;5091227;28;20051;-77
2021/12/30 05:04:42;;;;;;;0.00;0.00;;;13.10;99.90;;;;;;5091202;28;20181;-77
2021/12/30 05:07:08;;;;;;;0.00;0.00;;;12.90;99.90;;;;;;5094039;28;20106;-77
2021/12/30 05:09:33;;;;;;;0.10;0.10;;;12.80;99.90;;;;;;5094886;28;20104;-76
2021/12/30 05:11:59;;;;;;;0.00;0.00;;;12.80;99.90;;;;;;5113260;28;20015;-75
2021/12/30 05:14:25;;;;;;;0.00;0.00;;;12.60;99.90;;;;;;5113255;28;20047;-77
2021/12/30 05:16:52;;;;;;;0.22;0.00;;;12.50;99.90;;;;;;5094820;28;20032;-76
2021/12/30 05:19:18;;;;;;;0.22;0.22;;;12.50;99.90;;;;;;5094806;28;20031;-77
2021/12/30 05:21:44;;;;;;;0.20;0.20;;;12.50;99.90;;;;;;5094561;28;20093;-75
2021/12/30 05:24:10;;;;;;;1.13;0.10;;;12.40;99.90;;;;;;5094063;28;20032;-76
2021/12/30 05:26:36;;;;;;;0.20;0.20;;;12.10;99.90;;;;;;5112899;28;20024;-77
2021/12/30 05:29:03;;;;;;;0.10;0.10;;;12.20;99.90;;;;;;5112885;28;20018;-77
2021/12/30 05:31:29;;;;;;;0.95;0.45;;;12.10;99.90;;;;;;5094283;28;20073;-75
2021/12/30 05:33:55;;;;;;;0.10;0.10;;;12.00;99.90;;;;;;5112846;28;20019;-76
2021/12/30 05:36:20;;;;;;;0.32;0.10;;;12.00;99.90;;;;;;5094576;28;20438;-76
2021/12/30 05:38:47;;;;;;;0.13;0.10;;;11.90;99.90;;;;;;5112207;28;20085;-77
2021/12/30 05:41:12;;;;;;;0.15;0.10;;;11.90;99.90;;;;;;5094089;28;20043;-77
2021/12/30 05:43:39;;;;;;;0.10;0.10;;;12.00;99.90;;;;;;5112632;28;20024;-77
2021/12/30 05:46:04;;;;;;;0.30;0.15;;;12.10;99.90;;;;;;5112461;28;20047;-76
2021/12/30 05:48:30;;;;;;;0.22;0.22;;;12.00;99.90;;;;;;5112587;28;20066;-76
2021/12/30 05:51:00;;;;;;;0.05;0.05;;;12.00;99.90;;;;;;5112716;28;20015;-77
2021/12/30 05:53:29;;;;;;;0.08;0.08;;;12.00;99.90;;;;;;5112445;28;20016;-77
2021/12/30 05:55:55;;;;;;;0.10;0.10;;;12.00;99.90;;;;;;5112248;28;20508;-77
2021/12/30 05:58:21;;;;;;;0.00;0.00;;;12.00;99.90;;;;;;5093918;28;20031;-77
2021/12/30 06:00:48;;;;;;;1.10;0.05;;;12.10;99.90;;;;;;5093711;28;20126;-76
2021/12/30 06:03:21;;;;;;;0.10;0.10;;;12.20;99.90;;;;;;5112206;28;20019;-77
2021/12/30 06:05:48;;;;;;;0.20;0.20;;;12.10;99.90;;;;;;5093906;28;20176;-77
2021/12/30 06:08:14;;;;;;;0.98;0.00;;;12.10;99.90;;;;;;5093517;28;20035;-77
2021/12/30 06:10:41;;;;;;;0.05;0.00;;;12.20;99.90;;;;;;5111990;28;20031;-75
2021/12/30 06:13:07;;;;;;;0.03;0.03;;;12.10;99.90;;;;;;5093522;28;20136;-77
2021/12/30 06:15:33;;;;;;;0.00;0.00;;;12.10;99.90;;;;;;5093879;28;20408;-76
2021/12/30 06:17:58;;;;;;;0.43;0.22;;;12.10;99.90;;;;;;5092826;28;20503;-77
2021/12/30 06:20:24;;;;;;;0.08;0.08;;;12.00;99.90;;;;;;5111806;28;20253;-76
2021/12/30 06:22:51;;;;;;;0.20;0.20;;;11.90;99.90;;;;;;5111803;28;20036;-77
2021/12/30 06:25:17;;;;;;;0.20;0.20;;;11.90;99.90;;;;;;5093437;28;20118;-77
2021/12/30 06:27:42;;;;;;;0.13;0.10;;;11.80;99.90;;;;;;5093440;28;20632;-76
2021/12/30 06:30:09;;;;;;;0.03;0.03;;;11.90;99.90;;;;;;5093703;28;20023;-76
2021/12/30 06:32:35;;;;;;;2.50;0.35;;;12.00;99.90;;;;;;5093356;28;20076;-77
2021/12/30 06:35:01;;;;;;;0.20;0.20;;;12.00;99.90;;;;;;5093399;28;20141;-77
2021/12/30 06:37:28;;;;;;;0.03;0.03;;;12.00;99.90;;;;;;5111396;28;20122;-78
2021/12/30 06:39:54;;;;;;;0.00;0.00;;;12.20;99.90;;;;;;5093542;28;20027;-75
2021/12/30 06:42:19;;;;;;;0.08;0.08;;;12.30;99.90;;;;;;5087930;28;20043;-78
2021/12/30 06:44:45;;;;;;;0.10;0.10;;;12.30;99.90;;;;;;5091781;28;20389;-77
2021/12/30 06:47:11;;;;;;;0.30;0.10;;;12.40;99.90;;;;;;5074137;28;20024;-77
2021/12/30 06:49:37;;;;;;;0.10;0.10;;;12.60;99.90;;;;;;5072080;28;20566;-75
2021/12/30 06:52:09;;;;;;;0.00;0.00;;;12.80;99.90;;;;;;5072148;28;20020;-76
2021/12/30 06:54:36;;;;;;;0.00;0.00;;;13.20;99.90;;;;;;5094868;28;20182;-77
2021/12/30 06:57:03;;;;;;;0.00;0.00;;;13.30;99.90;;;;;;5095597;28;20023;-77
2021/12/30 06:59:30;;;;;;;0.10;0.00;;;13.30;99.90;;;;;;5091556;28;20043;-77
2021/12/30 07:01:57;;;;;;;0.00;0.00;;;13.40;99.90;;;;;;5073997;28;20028;-77
2021/12/30 07:04:26;;;;;;;0.25;0.25;;;13.50;99.90;;;;;;5078185;28;20105;-76
2021/12/30 07:06:53;;;;;;;0.00;0.00;;;13.60;99.90;;;;;;5071586;28;20237;-76
2021/12/30 07:09:20;;;;;;;0.00;0.00;;;13.60;99.90;;;;;;5072285;28;20016;-76
2021/12/30 07:11:48;;;;;;;0.00;0.00;;;13.70;99.90;;;;;;5094070;28;20047;-77
2021/12/30 07:14:20;;;;;;;0.13;0.00;;;13.70;99.90;;;;;;5079871;28;20622;-76
2021/12/30 07:16:46;;;;;;;0.05;0.00;;;13.70;99.90;;;;;;5092499;28;20035;-77
2021/12/30 07:19:12;;;;;;;0.00;0.00;;;13.80;99.90;;;;;;5110660;28;20498;-77
2021/12/30 07:21:38;;;;;;;0.00;0.00;;;13.70;99.90;;;;;;5110608;28;20094;-76
2021/12/30 07:24:05;;;;;;;0.00;0.00;;;13.80;99.90;;;;;;5110551;28;20045;-77
2021/12/30 07:26:30;;;;;;;0.00;0.00;;;13.80;99.90;;;;;;5092387;28;20042;-75
2021/12/30 07:28:56;;;;;;;0.00;0.00;;;13.80;99.90;;;;;;5092125;28;20122;-76
2021/12/30 07:31:22;;;;;;;0.00;0.00;;;13.80;99.90;;;;;;5092222;28;20039;-76
2021/12/30 07:33:47;;;;;;;0.00;0.00;;;13.90;99.90;;;;;;5092251;28;20024;-77
2021/12/30 07:36:14;;;;;;;0.00;0.00;;;13.80;99.90;;;;;;5100045;28;20464;-77
2021/12/30 07:38:39;;;;;;;0.00;0.00;;;13.90;99.90;;;;;;5082121;28;20067;-77
2021/12/30 07:41:05;;;;;;;0.00;0.00;;;14.00;99.90;;;;;;5087653;28;20074;-76
2021/12/30 07:43:31;;;;;;;0.00;0.00;;;14.00;99.90;;;;;;5109196;28;20028;-76
2021/12/30 07:45:57;;;;;;;0.00;0.00;;;13.90;99.90;;;;;;5109948;28;20016;-76
2021/12/30 07:48:23;;;;;;;0.00;0.00;;;14.00;99.90;;;;;;5110278;28;20526;-76
2021/12/30 07:50:50;;;;;;;0.00;0.00;;;14.00;99.90;;;;;;5092076;28;20385;-77
2021/12/30 07:53:16;;;;;;;0.00;0.00;;;14.00;99.90;;;;;;5091735;28;20032;-76
2021/12/30 07:55:41;;;;;;;0.00;0.00;;;14.00;99.90;;;;;;5091930;28;20047;-77
2021/12/30 07:58:08;;;;;;;0.00;0.00;;;14.20;99.90;;;;;;5091860;28;20058;-76
2021/12/30 08:00:33;;;;;;;0.00;0.00;;;14.30;99.90;;;;;;5091517;28;20545;-77
2021/12/30 08:03:00;;;;;;;0.15;0.08;;;14.30;99.90;;;;;;5074189;28;20032;-76
2021/12/30 08:05:27;;;;;;;0.32;0.00;;;14.30;99.90;;;;;;5081528;28;20020;-76
2021/12/30 08:07:53;;;;;;;0.00;0.00;;;14.30;99.90;;;;;;5088188;28;20464;-76
2021/12/30 08:10:20;;;;;;;0.10;0.00;;;14.30;99.90;;;;;;5079726;28;20036;-77
2021/12/30 08:12:48;;;;;;;0.00;0.00;;;14.30;99.90;;;;;;5107323;28;20434;-77
2021/12/30 08:15:15;;;;;;;0.15;0.15;;;14.40;99.90;;;;;;5089013;28;20062;-78
2021/12/30 08:17:41;;;;;;;0.10;0.10;;;14.40;99.90;;;;;;5088198;28;20031;-75
2021/12/30 08:20:09;;;;;;;0.08;0.08;;;14.30;99.90;;;;;;5107530;28;20047;-75
2021/12/30 08:22:35;;;;;;;0.10;0.10;;;14.30;99.90;;;;;;5076203;28;20451;-77
2021/12/30 08:25:02;;;;;;;0.00;0.00;;;14.30;99.90;;;;;;5086503;28;20027;-76
2021/12/30 08:27:27;;;;;;;0.10;0.10;;;14.30;99.90;;;;;;5071767;28;20028;-76
2021/12/30 08:29:53;;;;;;;0.10;0.10;;;14.30;99.90;;;;;;5086444;28;20031;-76
2021/12/30 08:32:19;;;;;;;0.10;0.10;;;14.30;99.90;;;;;;5067831;28;20020;-76
2021/12/30 08:34:45;;;;;;;0.00;0.00;;;14.30;99.90;;;;;;5067279;28;20024;-76
2021/12/30 08:37:12;;;;;;;0.10;0.00;;;14.30;99.90;;;;;;5085821;28;20099;-76
2021/12/30 08:39:40;;;;;;;0.00;0.00;;;14.30;99.90;;;;;;5094679;28;20110;-76
2021/12/30 08:42:17;;;;;;;0.00;0.00;;;14.40;99.90;;;;;;5091809;28;20038;-76
2021/12/30 08:44:43;;;;;;;0.10;0.00;;;14.40;99.90;;;;;;5095207;28;20073;-76
2021/12/30 08:47:08;;;;;;;0.00;0.00;;;14.40;99.90;;;;;;5071398;28;20134;-76
2021/12/30 08:49:34;;;;;;;0.00;0.00;;;14.40;99.90;;;;;;5089424;28;20024;-75
2021/12/30 08:52:00;;;;;;;0.00;0.00;;;14.40;99.90;;;;;;5096192;28;20092;-76
2021/12/30 08:54:26;;;;;;;0.00;0.00;;;14.40;99.90;;;;;;5098717;28;20043;-76
2021/12/30 08:56:51;;;;;;;0.75;0.00;;;14.40;99.90;;;;;;5122272;28;20020;-76
2021/12/30 08:59:17;;;;;;;0.00;0.00;;;14.50;99.90;;;;;;5107024;28;20020;-77
2021/12/30 09:01:43;;;;;;;0.00;0.00;;;14.50;99.90;;;;;;5083122;28;20107;-76
2021/12/30 09:04:08;;;;;;;0.00;0.00;;;14.50;99.90;;;;;;5099475;28;20462;-76
2021/12/30 09:06:34;;;;;;;0.00;0.00;;;14.50;99.90;;;;;;5080708;28;20105;-76
2021/12/30 09:09:00;;;;;;;0.00;0.00;;;14.50;99.90;;;;;;5101352;28;20032;-76
2021/12/30 09:11:26;;;;;;;0.08;0.00;;;14.60;99.90;;;;;;5082395;28;20020;-74
2021/12/30 09:13:51;;;;;;;0.00;0.00;;;14.60;99.90;;;;;;5083808;28;20043;-76
2021/12/30 09:16:17;;;;;;;0.00;0.00;;;14.60;99.90;;;;;;5101616;28;20036;-76
2021/12/30 09:18:42;;;;;;;0.00;0.00;;;14.70;99.90;;;;;;5079774;28;20575;-76
2021/12/30 09:21:08;;;;;;;0.00;0.00;;;14.80;99.90;;;;;;5101084;28;20266;-77
2021/12/30 09:23:34;;;;;;;0.00;0.00;;;14.80;99.90;;;;;;5097313;28;20563;-76
2021/12/30 09:26:00;;;;;;;0.20;0.10;;;14.80;99.90;;;;;;5102175;28;20036;-78
2021/12/30 09:28:26;;;;;;;0.00;0.00;;;14.90;99.90;;;;;;5086056;28;20089;-76
2021/12/30 09:30:51;;;;;;;0.30;0.00;;;14.90;99.90;;;;;;5119288;28;20028;-77
2021/12/30 09:33:17;;;;;;;0.00;0.00;;;14.90;99.90;;;;;;5112437;28;20418;-77
2021/12/30 09:35:47;;;;;;;0.00;0.00;;;14.90;99.90;;;;;;5107018;28;20058;-77
2021/12/30 09:38:12;;;;;;;0.88;0.00;;;14.80;99.90;;;;;;5109960;28;20534;-77
2021/12/30 09:40:38;;;;;;;0.00;0.00;;;14.90;99.90;;;;;;5108402;28;20028;-77
2021/12/30 09:43:04;;;;;;;0.00;0.00;;;14.80;99.90;;;;;;5083278;28;20262;-76
2021/12/30 09:45:37;;;;;;;0.45;0.45;;;14.70;99.90;;;;;;5105336;27;20032;-77
2021/12/30 09:48:06;;;;;;;0.13;0.00;;;14.70;99.90;;;;;;5077800;28;20030;-76
2021/12/30 09:50:36;;;;;;;0.00;0.00;;;14.70;99.90;;;;;;5097438;28;20039;-76
2021/12/30 09:53:02;;;;;;;0.10;0.10;;;14.80;99.90;;;;;;5097266;28;20016;-76
2021/12/30 09:55:29;;;;;;;0.00;0.00;;;14.90;99.90;;;;;;5080630;28;20377;-76
2021/12/30 09:57:55;;;;;;;0.00;0.00;;;14.90;99.90;;;;;;5082350;28;20012;-76
2021/12/30 10:00:21;;;;;;;0.00;0.00;;;15.00;99.90;;;;;;5081464;28;20024;-77
2021/12/30 10:02:47;;;;;;;0.00;0.00;;;14.90;99.90;;;;;;5081502;28;20024;-76
2021/12/30 10:05:17;;;;;;;0.10;0.00;;;14.80;99.90;;;;;;5091903;28;20016;-77
2021/12/30 10:07:42;;;;;;;0.00;0.00;;;14.80;99.90;;;;;;5089150;28;20027;-76
2021/12/30 10:10:30;;;;;;;0.00;0.00;;;14.80;99.90;;;;;;5106730;28;20054;-76
2021/12/30 10:12:56;;;;;;;0.00;0.00;;;14.90;99.90;;;;;;5100818;28;20898;-76
2021/12/30 10:15:26;;;;;;;0.22;0.22;;;14.70;99.90;;;;;;5081848;28;20030;-77
2021/12/30 10:17:58;;;;;;;0.38;0.00;;;14.70;99.90;;;;;;5090150;28;20082;-76
2021/12/30 10:20:30;;;;;;;0.10;0.10;;;14.70;99.90;;;;;;5085878;28;20028;-75
2021/12/30 10:23:08;;;;;;;0.00;0.00;;;14.60;99.90;;;;;;5088123;28;20031;-76
2021/12/30 10:25:37;;;;;;;0.05;0.00;;;14.60;99.90;;;;;;5106434;28;20100;-77
2021/12/30 10:28:25;;;;;;;0.10;0.00;;;14.60;99.90;;;;;;5088141;28;20119;-77
2021/12/30 10:30:55;;;;;;;0.10;0.10;;;14.60;99.90;;;;;;5088400;28;20020;-76
2021/12/30 10:33:24;;;;;;;0.00;0.00;;;14.80;99.90;;;;;;5107336;28;20035;-76
2021/12/30 10:35:51;;;;;;;0.00;0.00;;;14.80;99.90;;;;;;5092994;28;20126;-76
2021/12/30 10:38:17;;;;;;;0.00;0.00;;;14.90;99.90;;;;;;5086530;28;20217;-76
2021/12/30 10:40:47;;;;;;;0.00;0.00;;;15.00;99.90;;;;;;5067897;28;20043;-76
2021/12/30 10:43:26;;;;;;;;;;;14.90;99.90;;;;;;5068794;28;20111;-76
2021/12/30 10:46:04;;;;;;;0.20;0.00;;;15.30;99.90;;;;;;5086176;28;20346;-76
2021/12/30 10:48:30;;;;;;;0.00;0.00;;;15.30;99.90;;;;;;5067808;28;20512;-76
2021/12/30 10:51:16;;;;;;;0.13;0.10;;;15.40;99.90;;;;;;5087479;28;20067;-76
2021/12/30 10:53:43;;;;;;;0.00;0.00;;;15.40;99.90;;;;;;5087445;28;20093;-76
2021/12/30 10:56:31;;;;;;;0.00;0.00;;;15.30;99.90;;;;;;5091525;28;20039;-76
2021/12/30 10:59:32;;;;;;;0.00;0.00;;;15.30;99.90;;;;;;5091210;28;20032;-75
2021/12/30 11:02:04;;;;;;;0.00;0.00;;;15.30;99.90;;;;;;5075011;28;20123;-76
2021/12/30 11:04:43;;;;;;;0.10;0.10;;;15.30;99.90;;;;;;5069423;28;20602;-76
2021/12/30 11:07:12;;;;;;;0.03;0.03;;;15.30;99.90;;;;;;5090850;28;20039;-76
2021/12/30 11:09:48;;;;;;;0.00;0.00;;;15.30;99.90;;;;;;5074018;28;20456;-77
2021/12/30 11:12:15;;;;;;;0.38;0.00;;;15.20;99.90;;;;;;5109942;28;20035;-76
2021/12/30 11:14:41;;;;;;;0.00;0.00;;;15.10;99.90;;;;;;5115541;28;20023;-76
2021/12/30 11:17:17;;;;;;;0.55;0.10;;;15.10;99.90;;;;;;5101071;28;20019;-76
2021/12/30 11:19:58;;;;;;;0.55;0.30;;;15.10;99.90;;;;;;5119558;28;20087;-76
2021/12/30 11:22:26;;;;;;;0.32;0.10;;;15.10;99.90;;;;;;5101106;28;20043;-77
2021/12/30 11:24:55;;;;;;;0.00;0.00;;;15.00;99.90;;;;;;5119107;28;20027;-77
2021/12/30 11:27:22;;;;;;;0.10;0.00;;;15.10;99.90;;;;;;5101380;28;20038;-75
2021/12/30 11:29:51;;;;;;;0.00;0.00;;;15.20;99.90;;;;;;5119640;28;20342;-76
2021/12/30 11:32:20;;;;;;;0.00;0.00;;;15.30;99.90;;;;;;5118708;28;20319;-75
2021/12/30 11:34:47;;;;;;;0.00;0.00;;;15.30;99.90;;;;;;5119691;28;20391;-76
2021/12/30 11:37:14;;;;;;;0.10;0.00;;;15.30;99.90;;;;;;5118751;28;20134;-76
2021/12/30 11:39:48;;;;;;;0.65;0.10;;;15.10;99.90;;;;;;5100690;28;20031;-76
2021/12/30 11:42:21;;;;;;;0.10;0.10;;;15.10;99.90;;;;;;5114366;28;20344;-76
2021/12/30 11:44:54;;;;;;;0.03;0.00;;;15.00;99.90;;;;;;5118141;28;20116;-76
2021/12/30 11:47:32;;;;;;;0.00;0.00;;;15.00;99.90;;;;;;5118847;28;20047;-76
2021/12/30 11:50:06;;;;;;;0.10;0.10;;;15.00;99.90;;;;;;5119471;28;20220;-77
2021/12/30 11:53:06;;;;;;;0.00;0.00;;;14.90;99.90;;;;;;5118401;28;20226;-76
2021/12/30 11:55:53;;;;;;;0.10;0.10;;;14.80;99.90;;;;;;5100805;28;20027;-75
2021/12/30 11:58:29;;;;;;;0.10;0.10;;;14.80;99.90;;;;;;5095302;28;20278;-76
2021/12/30 12:01:17;;;;;;;1.65;0.10;;;14.80;99.90;;;;;;5098939;28;20050;-76
2021/12/30 12:03:54;;;;;;;0.00;0.00;;;14.80;99.90;;;;;;5082688;28;20036;-76
2021/12/30 12:06:31;;;;;;;1.13;0.00;;;15.00;99.90;;;;;;5097784;28;20038;-76
2021/12/30 12:09:27;;;;;;;0.00;0.00;;;14.90;99.90;;;;;;5080441;28;20324;-76
2021/12/30 12:11:54;;;;;;;0.00;0.00;;;14.90;99.90;;;;;;5079976;28;20033;-76
2021/12/30 12:14:25;;;;;;;0.05;0.05;;;14.90;99.90;;;;;;5097814;28;20054;-76
2021/12/30 12:17:06;;;;;;;0.10;0.10;;;15.00;99.90;;;;;;5078691;28;20027;-76
2021/12/30 12:19:46;;;;;;;0.00;0.00;;;15.00;99.90;;;;;;5097785;28;20028;-76
2021/12/30 12:22:17;;;;;;;0.10;0.10;;;15.00;99.90;;;;;;5098242;28;20311;-76
2021/12/30 12:24:51;;;;;;;0.10;0.10;;;15.20;99.90;;;;;;5079893;28;20039;-76
2021/12/30 12:27:19;;;;;;;0.10;0.10;;;15.20;99.90;;;;;;5106107;28;20027;-76
2021/12/30 12:29:55;;;;;;;0.10;0.10;;;15.20;99.90;;;;;;5100369;28;20054;-76
2021/12/30 12:32:30;;;;;;;0.40;0.10;;;15.20;99.90;;;;;;5100474;28;20085;-76
2021/12/30 12:34:58;;;;;;;1.88;0.30;;;15.30;99.90;;;;;;5100384;28;20055;-76
2021/12/30 12:37:32;;;;;;;1.27;0.20;;;15.20;99.90;;;;;;5099654;28;20081;-77
2021/12/30 12:39:57;;;;;;;0.00;0.00;;;15.10;99.90;;;;;;5099869;28;20351;-76
2021/12/30 12:42:50;;;;;;;0.03;0.00;;;15.20;99.90;;;;;;5117901;28;20039;-76
2021/12/30 12:45:29;;;;;;;2.47;0.20;;;15.20;99.90;;;;;;5089088;28;20036;-76
2021/12/30 12:48:13;;;;;;;;;;;15.30;99.90;;;;;;5118576;28;20035;-76
2021/12/30 12:50:40;;;;;;;0.17;0.10;;;15.10;99.90;;;;;;5118136;28;19907;-76
2021/12/30 12:53:24;;;;;;;0.00;0.00;;;15.00;99.90;;;;;;5099307;28;20310;-77